x

West Dixon Entrance (46205) Wave Buoy

9:00pm - Sat 20th Dec 2014 All times are PST. -8 hours from GMT.

  • Sig Wave height 11.5ft
  • Peak Period 11s
  • Wind
    11mph, 13mph gusts
  • Sea Temp 48°f
  • Air Temp 46°f
  • Sea Pressure 985.1mb
  • West Dixon Entrance
  • West Dixon Entrance

More Historic Weather Station data

Upgrade to MSW Pro to gain access to the past 30 days of data for over 8000 Wavebouys and Weather Stations around the globe.

Join Pro

Comparision Forecast

View Surf forecast
   
Sat 12/20 9:00pm 11.5ft 11s 11 13 mph 985.1mb 48f 46f
8:00pm 12ft 12s 9 11 mph 984.3mb 49f 45f
7:00pm 12ft 10s 9 11 mph 983.4mb 49f 47f
6:00pm 12ft 11s 9 11 mph 982.7mb 49f 47f
5:00pm 12.5ft 10s 7 11 mph 982mb 49f 47f
4:00pm 12ft 12s 11 13 mph 981.1mb 49f 46f
3:00pm 12ft 10s 11 13 mph 980.5mb 49f 47f
2:00pm 12.5ft 11s 11 16 mph 979.8mb 49f 47f
1:00pm 12ft 11s 9 13 mph 979.1mb 48f 47f
12:00pm 13ft 11s 16 18 mph 978.8mb 48f 47f
11:00am 13ft 14s 16 22 mph 978.1mb 48f 47f
10:00am 14ft 11s 18 22 mph 977.6mb 48f 47f
9:00am 14ft 11s 20 25 mph 976.3mb 48f 47f
8:00am 16.5ft 13s 20 27 mph 975.6mb 48f 47f
7:00am 16.5ft 10s 22 27 mph 975.1mb 48f 48f
6:00am 17.5ft 9s 20 25 mph 975.1mb 48f 49f
5:00am 19.5ft 10s 18 27 mph 975.1mb 48f 48f
4:00am 21ft 10s 27 34 mph 975.3mb 47f 48f
3:00am 18ft 8s 31 43 mph 976mb 47f 47f
2:00am 19.5ft 9s 36 45 mph 976.9mb 47f 48f
1:00am 19.5ft 15s 36 47 mph 978mb 47f 48f
12:00am 19.5ft 9s 36 45 mph 979.3mb 47f 48f
Fri 12/19 11:00pm 17.5ft 15s 36 45 mph 980.7mb 47f 47f
10:00pm 17.5ft 14s 34 43 mph 982mb 47f 47f
9:00pm 16.5ft 16s 34 43 mph 983mb 47f 48f
8:00pm 17ft 16s 31 40 mph 984mb 48f 48f
7:00pm 17.5ft 15s 31 38 mph 985mb 48f 48f
6:00pm 18ft 15s 29 34 mph 985.5mb 48f 48f
5:00pm 18.5ft 15s 27 31 mph 986.3mb 48f 48f
4:00pm 20.5ft 16s 25 31 mph 986.3mb 48f 47f
3:00pm 19.5ft 16s 25 31 mph 985.8mb 48f 48f
2:00pm 20ft 16s 27 31 mph 985.2mb 48f 47f
1:00pm 19.5ft 14s 27 36 mph 984.6mb 48f 47f
12:00pm 19.5ft 17s 27 34 mph 984.3mb 48f 46f
11:00am 19.5ft 16s 29 38 mph 985mb 48f 47f
10:00am 19.5ft 17s 31 40 mph 985.1mb 48f 48f
9:00am 19ft 17s 31 38 mph 985.7mb 48f 48f
8:00am 19.5ft 17s 34 43 mph 985.9mb 48f 47f
7:00am 19.5ft 16s 31 43 mph 986.5mb 48f 47f
6:00am 19.5ft 18s 31 40 mph 987mb 48f 49f
5:00am 18.5ft 16s 31 38 mph 987.6mb 48f 49f
3:00am 16.5ft 16s 29 36 mph 988.8mb 48f 48f
2:00am 16.5ft 18s 27 40 mph 988.9mb 48f 48f
1:00am 17.5ft 18s 22 27 mph 989.1mb 48f 48f
Thu 12/18 11:00pm 15.5ft 18s 20 25 mph 989.1mb 48f 48f
10:00pm 15ft 20s 18 22 mph 989.3mb 48f 48f
9:00pm 15ft 20s 16 20 mph 989mb 48f 48f
8:00pm 14ft 12s 18 22 mph 988.7mb 48f 47f
7:00pm 15ft 12s 18 25 mph 988.3mb 48f 47f
6:00pm 15.5ft 10s 18 22 mph 988.8mb 48f 47f
5:00pm 15.5ft 11s 16 20 mph 988.8mb 48f 46f
4:00pm 17ft 11s 16 20 mph 988.4mb 48f 45f
3:00pm 18ft 11s 18 20 mph 988mb 48f 47f
1:00pm 18.5ft 11s 13 20 mph 986.8mb 48f 45f
12:00pm 19.5ft 10s 22 34 mph 984.8mb 47f 45f
11:00am 18.5ft 10s 34 43 mph 983.9mb 47f 48f
10:00am 15ft 10s 34 45 mph 984.1mb 48f 47f
9:00am 12.5ft 8s 31 38 mph 985.1mb 48f 47f
8:00am 12ft 8s 29 43 mph 986.2mb 48f 47f
7:00am 13ft 8s 25 29 mph 988.1mb 48f 46f
6:00am 11.5ft 7s 29 36 mph 989.5mb 49f 46f
4:00am 12ft 7s 27 36 mph 992.7mb 48f 48f
3:00am 11.5ft 7s 29 40 mph 993.9mb 48f 48f
2:00am 12ft 6s 29 36 mph 995.2mb 48f 47f
1:00am 10ft 7s 27 34 mph 996.1mb 48f 47f
12:00am 10.5ft 14s 25 31 mph 996.9mb 48f 48f
Wed 12/17 11:00pm 10.5ft 14s 22 29 mph 997.8mb 48f 47f
10:00pm 10.5ft 14s 25 36 mph 998.8mb 48f 47f
9:00pm 10.5ft 13s 25 31 mph 999.4mb 48f 47f
8:00pm 10ft 12s 27 31 mph 1000.1mb 48f 46f
7:00pm 11.5ft 13s 22 27 mph 1001mb 48f 46f
4:00pm 12ft 8s 29 36 mph 1001.3mb 49f 46f
3:00pm 12ft 8s 25 31 mph 1001.9mb 48f 45f
2:00pm 12ft 8s 29 36 mph 1002.1mb 48f 46f
1:00pm 11ft 14s 29 36 mph 1002.4mb 48f 45f
12:00pm 11ft 12s 27 31 mph 1003.1mb 48f 46f
11:00am 11ft 14s 25 31 mph 1003.4mb 48f 47f
10:00am 10.5ft 14s 25 29 mph 1003.4mb 48f 46f
9:00am 11ft 14s 22 29 mph 1003.5mb 48f 46f
8:00am 11ft 13s 22 29 mph 1003.2mb 48f 47f
7:00am 11.5ft 13s 25 31 mph 1003.3mb 48f 47f